createdAt,value
2023-04-16T00:00:34.963Z,98174.97
2023-04-16T00:03:08.948Z,98172.44
2023-04-16T00:05:43.069Z,98177.84
2023-04-16T00:08:16.694Z,98176.97
2023-04-16T00:10:53.051Z,98177.06
2023-04-16T00:23:48.670Z,98179.41
2023-04-16T00:26:30.676Z,98183.88
2023-04-16T00:29:03.974Z,98179.41
2023-04-16T00:31:39.670Z,98168.81
2023-04-16T00:34:12.895Z,98177.69
2023-04-16T00:36:46.711Z,98173.38
2023-04-16T00:50:00.296Z,98176.19
2023-04-16T00:52:34.868Z,98179.09
2023-04-16T00:55:08.653Z,98183.38
2023-04-16T00:57:42.030Z,98179.97
2023-04-16T01:00:17.694Z,98175.50
2023-04-16T01:16:54.652Z,98190.28
2023-04-16T01:19:34.663Z,98194.72
2023-04-16T01:22:09.955Z,98200.22
2023-04-16T01:24:44.678Z,98195.84
2023-04-16T01:27:17.948Z,98200.38
2023-04-16T01:29:51.669Z,98198.75
2023-04-16T01:43:19.668Z,98199.22
2023-04-16T01:46:07.422Z,98199.22
2023-04-16T01:48:47.697Z,98204.50
2023-04-16T01:51:21.297Z,98201.09
2023-04-16T01:53:56.456Z,98207.25
2023-04-16T01:56:29.965Z,98206.38
2023-04-16T02:09:20.646Z,98215.47
2023-04-16T02:12:00.715Z,98216.41
2023-04-16T02:14:34.367Z,98223.53
2023-04-16T02:17:08.663Z,98225.31
2023-04-16T02:19:43.053Z,98232.41
2023-04-16T02:22:16.662Z,98234.38
2023-04-16T02:24:52.091Z,98238.91
2023-04-16T02:37:40.630Z,98240.81
2023-04-16T02:40:22.677Z,98239.19
2023-04-16T02:42:56.278Z,98247.97
2023-04-16T02:45:30.640Z,98239.25
2023-04-16T02:48:04.831Z,98249.84
2023-04-16T02:50:38.646Z,98238.41
2023-04-16T03:03:50.716Z,98248.31
2023-04-16T03:06:24.042Z,98247.50
2023-04-16T03:08:57.657Z,98250.19
2023-04-16T03:11:30.900Z,98244.91
2023-04-16T03:14:04.660Z,98243.22
2023-04-16T03:16:38.010Z,98250.19
2023-04-16T03:29:28.651Z,98260.22
2023-04-16T03:32:08.675Z,98267.31
2023-04-16T03:34:42.046Z,98261.16
2023-04-16T03:37:15.685Z,98262.09
2023-04-16T03:39:50.730Z,98264.81
2023-04-16T03:42:23.637Z,98263.09
2023-04-16T03:44:59.829Z,98266.63
2023-04-16T03:57:48.618Z,98287.97
2023-04-16T04:00:32.248Z,98289.88
2023-04-16T04:03:12.649Z,98292.59
2023-04-16T04:05:54.672Z,98293.63
2023-04-16T04:08:30.451Z,98310.47
2023-04-16T04:11:03.707Z,98306.13
2023-04-16T04:24:17.658Z,98318.59
2023-04-16T04:26:51.020Z,98320.28
2023-04-16T04:29:24.671Z,98320.28
2023-04-16T04:31:57.948Z,98320.28
2023-04-16T04:34:31.657Z,98327.31
2023-04-16T04:37:06.625Z,98323.72
2023-04-16T04:49:56.680Z,98335.25
2023-04-16T04:52:38.662Z,98343.22
2023-04-16T04:55:11.913Z,98334.31
2023-04-16T04:57:45.638Z,98352.78
2023-04-16T05:00:20.546Z,98353.72
2023-04-16T05:02:59.957Z,98354.50
2023-04-16T05:05:35.873Z,98359.78
2023-04-16T05:18:24.625Z,98375.50
2023-04-16T05:21:06.657Z,98376.38
2023-04-16T05:23:39.849Z,98371.09
2023-04-16T05:26:13.629Z,98373.75
2023-04-16T05:28:46.970Z,98385.09
2023-04-16T05:31:20.724Z,98386.81
2023-04-16T05:44:32.641Z,98388.19
2023-04-16T05:47:05.917Z,98384.59
2023-04-16T05:49:39.645Z,98396.06
2023-04-16T05:52:13.080Z,98395.13
2023-04-16T05:54:46.644Z,98394.28
2023-04-16T05:57:19.855Z,98396.94
2023-04-16T06:10:10.606Z,98408.03
2023-04-16T06:12:50.642Z,98406.22
2023-04-16T06:15:23.897Z,98400.00
2023-04-16T06:17:59.453Z,98408.72
2023-04-16T06:20:33.978Z,98418.47
2023-04-16T06:23:07.656Z,98413.16
2023-04-16T06:25:42.894Z,98424.63
2023-04-16T06:38:31.602Z,98422.44
2023-04-16T06:41:13.657Z,98424.13
2023-04-16T06:43:46.909Z,98430.31
2023-04-16T06:46:20.664Z,98436.31
2023-04-16T06:48:53.895Z,98433.56
2023-04-16T06:51:27.614Z,98432.72
2023-04-16T07:04:39.615Z,98449.38
2023-04-16T07:07:12.852Z,98446.72
2023-04-16T07:09:47.653Z,98452.03
2023-04-16T07:12:22.579Z,98453.75
2023-04-16T07:14:56.642Z,98448.34
2023-04-16T07:31:33.644Z,98453.78
2023-04-16T07:34:13.623Z,98452.75
2023-04-16T07:36:46.862Z,98459.56
2023-04-16T07:39:20.626Z,98459.44
2023-04-16T07:41:54.056Z,98460.97
2023-04-16T07:44:27.616Z,98460.81
2023-04-16T07:47:04.835Z,98467.63
2023-04-16T07:56:47.625Z,98459.00
2023-04-16T07:59:23.656Z,98460.19
2023-04-16T08:02:04.682Z,98460.81
2023-04-16T08:04:40.827Z,98459.59
2023-04-16T08:07:14.649Z,98460.94
2023-04-16T08:09:50.375Z,98459.47
2023-04-16T08:12:23.710Z,98464.16
2023-04-16T08:25:04.650Z,98470.63
2023-04-16T08:27:37.949Z,98478.25
2023-04-16T08:30:13.624Z,98476.94
2023-04-16T08:32:49.418Z,98479.16
2023-04-16T08:35:30.630Z,98477.75
2023-04-16T08:52:12.594Z,98483.03
2023-04-16T08:55:03.610Z,98487.09
2023-04-16T08:57:44.137Z,98490.34
2023-04-16T09:00:25.621Z,98489.09
2023-04-16T09:02:59.065Z,98491.66
2023-04-16T09:05:35.639Z,98495.75
2023-04-16T09:18:47.637Z,98516.81
2023-04-16T09:21:23.386Z,98507.66
2023-04-16T09:24:05.615Z,98518.88
2023-04-16T09:26:40.326Z,98512.41
2023-04-16T09:29:13.622Z,98522.69
2023-04-16T09:32:02.246Z,98527.78
2023-04-16T09:45:02.669Z,98539.94
2023-04-16T09:47:49.638Z,98546.69
2023-04-16T09:50:26.351Z,98556.09
2023-04-16T09:53:08.610Z,98553.34
2023-04-16T09:55:42.297Z,98554.00
2023-04-16T10:11:57.601Z,98547.66
2023-04-16T10:14:30.971Z,98554.28
2023-04-16T10:17:04.884Z,98548.56
2023-04-16T10:19:38.769Z,98546.44
2023-04-16T10:22:12.651Z,98551.56
2023-04-16T10:24:48.124Z,98554.78
2023-04-16T10:27:23.610Z,98549.88
2023-04-16T10:37:17.585Z,98545.44
2023-04-16T10:39:58.596Z,98545.22
2023-04-16T10:42:33.856Z,98537.75
2023-04-16T10:45:07.626Z,98542.91
2023-04-16T10:47:41.675Z,98539.88
2023-04-16T10:50:22.633Z,98539.47
2023-04-16T11:04:06.754Z,98536.59
2023-04-16T11:06:39.882Z,98538.81
2023-04-16T11:09:13.612Z,98536.66
2023-04-16T11:11:47.706Z,98543.28
2023-04-16T11:14:21.638Z,98537.50
2023-04-16T11:16:55.014Z,98537.28
2023-04-16T11:33:11.607Z,98528.19
2023-04-16T11:35:44.889Z,98533.97
2023-04-16T11:38:18.637Z,98539.94
2023-04-16T11:40:51.862Z,98543.31
2023-04-16T11:43:25.609Z,98537.53
2023-04-16T11:46:05.509Z,98536.84
2023-04-16T11:59:18.564Z,98545.41
2023-04-16T12:02:00.658Z,98552.31
2023-04-16T12:04:34.062Z,98544.47
2023-04-16T12:07:15.626Z,98544.94
2023-04-16T12:09:48.849Z,98549.97
2023-04-16T12:12:32.688Z,98537.78
2023-04-16T12:25:52.425Z,98534.91
2023-04-16T12:28:31.027Z,98540.03
2023-04-16T12:31:11.599Z,98546.38
2023-04-16T12:34:01.745Z,98543.06
2023-04-16T12:36:41.612Z,98539.06
2023-04-16T12:53:18.586Z,98535.91
2023-04-16T12:55:58.613Z,98532.94
2023-04-16T12:58:31.848Z,98532.81
2023-04-16T13:01:05.593Z,98529.22
2023-04-16T13:03:39.077Z,98532.59
2023-04-16T13:06:13.634Z,98531.59
2023-04-16T13:19:25.624Z,98540.72
2023-04-16T13:21:58.916Z,98544.38
2023-04-16T13:24:32.629Z,98543.78
2023-04-16T13:27:06.317Z,98547.81
2023-04-16T13:29:40.600Z,98544.53
2023-04-16T13:32:14.439Z,98548.31
2023-04-16T13:45:04.582Z,98550.78
2023-04-16T13:47:46.631Z,98549.31
2023-04-16T13:50:20.329Z,98550.53
2023-04-16T13:52:53.626Z,98554.44
2023-04-16T13:55:26.925Z,98556.59
2023-04-16T13:58:00.640Z,98558.56
2023-04-16T14:00:36.560Z,98557.06
2023-04-16T14:13:24.566Z,98553.31
2023-04-16T14:16:06.589Z,98552.69
2023-04-16T14:18:39.842Z,98565.38
2023-04-16T14:21:21.623Z,98554.41
2023-04-16T14:23:54.858Z,98558.16
2023-04-16T14:26:28.595Z,98551.56
2023-04-16T14:39:40.601Z,98547.66
2023-04-16T14:42:13.904Z,98557.75
2023-04-16T14:44:47.597Z,98560.66
2023-04-16T14:47:20.862Z,98565.28
2023-04-16T14:49:54.601Z,98568.06
2023-04-16T14:52:28.017Z,98570.63
2023-04-16T15:05:18.569Z,98581.53
2023-04-16T15:07:58.591Z,98580.72
2023-04-16T15:10:31.821Z,98583.50
2023-04-16T15:13:05.589Z,98587.91
2023-04-16T15:15:38.915Z,98586.91
2023-04-16T15:18:12.602Z,98586.91
2023-04-16T15:20:48.288Z,98593.97
2023-04-16T15:33:36.562Z,98602.44
2023-04-16T15:36:19.647Z,98603.19
2023-04-16T15:38:53.153Z,98602.94
2023-04-16T15:41:26.617Z,98604.03
2023-04-16T15:43:59.984Z,98606.72
2023-04-16T15:46:33.626Z,98614.88
2023-04-16T16:02:15.200Z,98622.72
2023-04-16T16:04:42.155Z,98622.84
2023-04-16T16:07:22.629Z,98625.53
2023-04-16T16:09:55.935Z,98629.28
2023-04-16T16:12:29.609Z,98638.41
2023-04-16T16:25:41.601Z,98639.72
2023-04-16T16:28:14.818Z,98646.38
2023-04-16T16:30:48.593Z,98650.88
2023-04-16T16:33:21.970Z,98656.44
2023-04-16T16:35:55.595Z,98651.31
2023-04-16T16:38:28.844Z,98653.47
2023-04-16T16:41:05.438Z,98655.41
2023-04-16T16:54:24.596Z,98664.19
2023-04-16T16:56:59.956Z,98669.66
2023-04-16T16:59:33.602Z,98675.19
2023-04-16T17:02:07.041Z,98675.44
2023-04-16T17:04:40.658Z,98680.13
2023-04-16T17:07:14.005Z,98678.53
2023-04-16T17:20:04.585Z,98688.81
2023-04-16T17:22:45.626Z,98684.53
2023-04-16T17:25:19.149Z,98694.47
2023-04-16T17:27:52.608Z,98697.38
2023-04-16T17:30:25.876Z,98704.84
2023-04-16T17:46:43.413Z,98714.44
2023-04-16T17:49:16.842Z,98712.94
2023-04-16T17:51:50.625Z,98710.47
2023-04-16T17:54:25.213Z,98714.31
2023-04-16T17:56:58.612Z,98711.84
2023-04-16T17:59:32.573Z,98716.44
2023-04-16T18:02:07.668Z,98722.94
2023-04-16T18:12:04.577Z,98731.72
2023-04-16T18:14:44.721Z,98720.31
2023-04-16T18:17:19.819Z,98736.34
2023-04-16T18:19:53.606Z,98730.22
2023-04-16T18:22:27.618Z,98733.97
2023-04-16T18:25:00.620Z,98731.28
2023-04-16T18:27:33.882Z,98737.59
2023-04-16T18:40:24.561Z,98746.00
2023-04-16T18:43:04.591Z,98756.78
2023-04-16T18:45:37.826Z,98764.78
2023-04-16T18:48:11.806Z,98766.56
2023-04-16T18:50:44.985Z,98768.41
2023-04-16T19:06:22.585Z,98767.19
2023-04-16T19:08:55.844Z,98765.47
2023-04-16T19:11:29.590Z,98768.25
2023-04-16T19:14:02.829Z,98770.91
2023-04-16T19:16:36.693Z,98769.19
2023-04-16T19:19:10.098Z,98767.47
2023-04-16T19:21:52.592Z,98771.09
2023-04-16T19:32:19.569Z,98772.03
2023-04-16T19:35:01.197Z,98767.59
2023-04-16T19:37:36.850Z,98763.09
2023-04-16T19:40:11.592Z,98770.25
2023-04-16T19:42:44.869Z,98772.03
2023-04-16T19:45:18.579Z,98763.31
2023-04-16T19:59:05.597Z,98769.78
2023-04-16T20:01:38.908Z,98765.38
2023-04-16T20:04:12.604Z,98769.03
2023-04-16T20:06:45.921Z,98779.69
2023-04-16T20:09:19.619Z,98778.94
2023-04-16T20:11:53.004Z,98779.88
2023-04-16T20:28:08.608Z,98780.66
2023-04-16T20:30:41.865Z,98781.63
2023-04-16T20:33:15.581Z,98774.56
2023-04-16T20:35:48.811Z,98772.88
2023-04-16T20:38:22.569Z,98776.38
2023-04-16T20:40:55.870Z,98770.22
2023-04-16T20:53:46.575Z,98780.22
2023-04-16T20:56:27.625Z,98784.66
2023-04-16T20:59:00.818Z,98784.66
2023-04-16T21:01:34.592Z,98776.66
2023-04-16T21:04:08.078Z,98783.81
2023-04-16T21:06:41.585Z,98791.94
2023-04-16T21:19:53.616Z,98786.88
2023-04-16T21:22:26.805Z,98784.22
2023-04-16T21:25:00.606Z,98787.81
2023-04-16T21:27:33.824Z,98791.44
2023-04-16T21:30:07.573Z,98784.38
2023-04-16T21:32:40.955Z,98781.81
2023-04-16T21:46:03.565Z,98783.72
2023-04-16T21:48:43.592Z,98784.69
2023-04-16T21:51:16.919Z,98786.50
2023-04-16T21:53:50.607Z,98785.66
2023-04-16T21:56:24.539Z,98789.25
2023-04-16T21:58:59.196Z,98788.31
2023-04-16T22:01:35.236Z,98787.44
2023-04-16T22:14:23.559Z,98782.41
2023-04-16T22:17:05.573Z,98783.38
2023-04-16T22:19:38.842Z,98786.19
2023-04-16T22:22:12.562Z,98788.13
2023-04-16T22:24:45.836Z,98789.91
2023-04-16T22:27:19.609Z,98791.75
2023-04-16T22:40:31.574Z,98790.97
2023-04-16T22:43:04.938Z,98790.19
2023-04-16T22:45:38.632Z,98790.19
2023-04-16T22:48:11.955Z,98781.47
2023-04-16T22:50:45.581Z,98787.63
2023-04-16T23:07:22.552Z,98788.78
2023-04-16T23:10:02.571Z,98783.56
2023-04-16T23:12:39.875Z,98787.16
2023-04-16T23:15:14.562Z,98790.66
2023-04-16T23:17:47.862Z,98788.00
2023-04-16T23:20:21.570Z,98788.94
2023-04-16T23:33:33.595Z,98782.94
2023-04-16T23:36:08.761Z,98785.72
2023-04-16T23:38:42.600Z,98778.59
2023-04-16T23:41:15.908Z,98777.81
2023-04-16T23:43:49.573Z,98775.16
2023-04-16T23:46:22.866Z,98780.50
2023-04-16T23:59:52.542Z,98771.72
